Time;durP1;ratioP1;P1;durP2;ratioP2;P2;SDS_P1;SDS_P2;PMS_P1;PMS_P2;Temp;Humidity;BMP_temperature;BMP_pressure;BME280_temperature;BME280_humidity;BME280_pressure;Samples;Min_cycle;Max_cycle;Signal;HPM_P1;HPM_P2
2022/06/03 01:00:19;;;;;;;6.50;4.47;;;;;;;12.87;56.93;100499.06;5054922;28;20393;-50
2022/06/03 01:03:04;;;;;;;4.90;3.55;;;;;;;12.89;56.07;100499.06;5025832;28;20041;-50
2022/06/03 01:05:44;;;;;;;5.57;3.90;;;;;;;12.92;56.65;100496.47;5035198;28;20253;-48
2022/06/03 01:08:49;;;;;;;5.68;3.60;;;;;;;12.88;56.29;100499.94;5031752;28;20041;-52
2022/06/03 06:22:31;;;;;;;6.95;4.45;;;;;;;13.50;60.79;100463.16;5057844;27;20424;-50
2022/06/03 07:30:49;;;;;;;8.23;4.38;;;;;;;15.27;59.86;100465.44;5009430;28;20753;-50
2022/06/03 07:33:35;;;;;;;10.50;4.75;;;;;;;15.38;59.97;100472.25;4981106;28;20518;-51
2022/06/03 07:36:28;;;;;;;8.60;4.53;;;;;;;15.47;59.76;100476.47;4986911;28;20047;-51
2022/06/03 07:38:58;;;;;;;9.00;4.65;;;;;;;15.57;59.34;100472.81;4990750;28;20097;-51
2022/06/03 07:41:49;;;;;;;10.35;5.40;;;;;;;15.61;59.72;100474.50;4983576;28;20073;-48
2022/06/03 07:47:02;;;;;;;13.27;5.43;;;;;;;15.78;58.79;100474.19;5053284;28;20419;-50
2022/06/03 07:49:34;;;;;;;8.98;5.15;;;;;;;15.84;59.54;100470.59;5036296;28;20059;-50
2022/06/03 07:52:12;;;;;;;9.13;5.32;;;;;;;15.89;59.09;100478.38;5070273;28;20064;-49
2022/06/03 07:54:51;;;;;;;9.93;5.43;;;;;;;15.96;58.77;100473.91;5037871;28;20046;-50
2022/06/03 07:57:22;;;;;;;11.30;6.05;;;;;;;16.06;59.06;100481.56;5038469;28;20053;-51
2022/06/03 07:59:50;;;;;;;10.60;5.72;;;;;;;16.13;58.88;100479.69;5039905;28;20098;-50
2022/06/03 08:02:21;;;;;;;10.52;5.82;;;;;;;16.18;58.78;100485.69;5036905;28;20052;-46
2022/06/03 08:05:01;;;;;;;9.75;4.97;;;;;;;16.22;59.01;100480.41;5042575;28;20060;-49
2022/06/03 08:13:13;;;;;;;8.25;6.00;;;;;;;16.35;59.12;100481.88;5038420;28;20381;-49
2022/06/03 08:15:50;;;;;;;9.07;5.30;;;;;;;16.42;59.14;100486.09;5044401;28;20045;-49
2022/06/03 08:18:19;;;;;;;9.07;4.72;;;;;;;16.55;58.92;100478.03;5038035;28;20054;-51
2022/06/03 08:20:52;;;;;;;7.63;5.10;;;;;;;16.64;59.12;100479.56;5040960;28;20041;-48
2022/06/03 08:23:20;;;;;;;12.30;4.65;;;;;;;16.76;59.27;100481.94;5032157;28;20045;-51
2022/06/03 08:25:50;;;;;;;9.98;4.65;;;;;;;16.90;58.53;100481.63;5041433;28;20045;-50
2022/06/03 08:28:21;;;;;;;8.32;4.90;;;;;;;16.98;58.77;100480.59;5036302;28;20073;-48
2022/06/03 08:30:51;;;;;;;9.73;5.85;;;;;;;17.01;58.35;100477.91;5031461;28;20386;-50
2022/06/03 08:33:40;;;;;;;10.23;5.82;;;;;;;17.10;58.33;100482.97;5032410;28;20460;-51
2022/06/03 08:36:12;;;;;;;8.27;4.57;;;;;;;17.12;58.31;100489.00;5035283;28;20132;-53
2022/06/03 08:38:45;;;;;;;6.57;4.30;;;;;;;17.19;58.29;100489.75;5034356;28;20100;-55
2022/06/03 08:44:27;;;;;;;8.48;5.55;;;;;;;17.25;58.21;100494.81;5113567;27;20453;-49
2022/06/03 08:47:33;;;;;;;7.55;5.68;;;;;;;17.32;58.04;100496.41;5038521;28;20132;-50
2022/06/03 08:50:06;;;;;;;8.10;5.07;;;;;;;17.42;58.28;100504.91;5013665;28;20461;-50
2022/06/03 08:52:49;;;;;;;10.00;6.05;;;;;;;17.44;58.46;100495.25;5014888;28;20228;-51
2022/06/03 09:03:24;;;;;;;10.80;4.97;;;;;;;17.96;58.50;100494.84;5035599;27;21016;-52
2022/06/03 09:16:28;;;;;;;6.65;4.30;;;;;;;18.66;56.44;100478.97;5059295;28;20906;-54
2022/06/03 09:21:34;;;;;;;9.35;4.38;;;;;;;18.84;57.41;100484.53;5039909;27;20401;-49
2022/06/03 09:29:20;;;;;;;9.55;4.35;;;;;;;19.25;56.51;100479.81;5051117;27;20393;-49
2022/06/03 09:31:51;;;;;;;9.10;4.80;;;;;;;19.37;56.65;100482.94;5018757;28;20101;-49
2022/06/03 09:34:22;;;;;;;7.60;4.43;;;;;;;19.47;55.49;100484.38;5016716;28;20046;-54
2022/06/03 09:36:49;;;;;;;8.65;4.50;;;;;;;19.53;55.61;100481.50;5024059;28;20100;-47
2022/06/03 09:39:36;;;;;;;9.05;4.70;;;;;;;19.59;55.31;100482.25;5019828;28;20088;-50
2022/06/03 09:42:04;;;;;;;11.52;4.22;;;;;;;19.65;54.38;100472.38;5010353;28;20057;-48
2022/06/03 09:44:31;;;;;;;8.50;4.57;;;;;;;19.73;54.70;100477.34;5016234;28;20481;-46
2022/06/03 09:47:03;;;;;;;7.45;4.22;;;;;;;19.92;55.40;100484.59;5016559;28;20052;-46
2022/06/03 09:49:32;;;;;;;10.18;4.85;;;;;;;20.06;55.19;100470.16;5017849;28;20053;-53
2022/06/03 09:52:01;;;;;;;5.75;3.75;;;;;;;20.34;55.01;100472.66;5022767;28;20054;-48
2022/06/03 09:54:34;;;;;;;7.03;4.28;;;;;;;20.57;54.22;100475.34;5016802;28;20053;-52
2022/06/03 10:02:17;;;;;;;7.68;5.38;;;;;;;21.31;54.41;100461.91;5077242;27;20394;-44
2022/06/03 10:04:44;;;;;;;10.32;5.82;;;;;;;21.72;53.36;100462.88;5024052;28;20041;-49
2022/06/03 10:07:11;;;;;;;10.15;4.28;;;;;;;22.01;52.50;100468.69;5027140;28;20448;-50
2022/06/03 10:18:01;;;;;;;8.80;4.30;;;;;;;22.58;50.44;100464.41;5040273;27;20408;-49
2022/06/03 10:20:28;;;;;;;10.02;3.85;;;;;;;22.67;50.57;100465.78;5010376;28;20050;-48
2022/06/03 10:22:55;;;;;;;6.32;4.63;;;;;;;22.65;49.52;100470.25;4999369;28;20062;-48
2022/06/03 10:25:26;;;;;;;7.68;5.03;;;;;;;22.73;49.45;100462.88;4991066;28;20046;-49
2022/06/03 10:27:53;;;;;;;6.55;4.05;;;;;;;22.78;49.42;100458.22;4993400;28;20046;-53
2022/06/03 10:30:27;;;;;;;7.13;4.43;;;;;;;22.78;49.59;100457.34;4998278;28;20042;-47
2022/06/03 10:32:54;;;;;;;7.35;3.83;;;;;;;22.79;49.37;100459.91;4992976;28;20050;-51
2022/06/03 10:35:26;;;;;;;6.72;4.28;;;;;;;22.79;48.60;100457.28;4998775;28;20502;-47
2022/06/03 10:37:56;;;;;;;8.73;3.67;;;;;;;22.84;49.22;100460.53;4993316;28;20043;-54
2022/06/03 10:40:31;;;;;;;8.68;4.05;;;;;;;22.89;48.97;100462.97;5001826;28;20081;-56
2022/06/03 10:43:01;;;;;;;8.05;4.60;;;;;;;22.98;48.97;100459.91;4973267;28;20109;-49
2022/06/03 10:45:33;;;;;;;5.85;3.65;;;;;;;23.18;49.60;100451.91;4999855;28;20049;-49
2022/06/03 10:48:00;;;;;;;7.88;4.28;;;;;;;23.44;49.95;100455.09;4994573;28;20050;-57
2022/06/03 10:50:31;;;;;;;5.53;3.97;;;;;;;23.68;48.77;100457.41;4998657;28;20051;-51
2022/06/03 11:09:19;;;;;;;10.98;6.40;;;;;;;24.07;46.41;100443.03;5030581;28;20743;-46
2022/06/03 11:11:56;;;;;;;11.35;5.47;;;;;;;24.18;46.53;100446.94;5015003;28;20045;-52
2022/06/03 11:14:42;;;;;;;7.65;5.50;;;;;;;24.15;46.18;100447.09;4998343;28;20038;-48
2022/06/03 11:17:16;;;;;;;6.68;5.15;;;;;;;24.24;46.48;100451.88;5008252;28;21994;-49
2022/06/03 11:19:47;;;;;;;7.55;5.13;;;;;;;24.36;46.24;100440.63;5021970;28;20085;-48
2022/06/03 11:22:25;;;;;;;10.30;6.90;;;;;;;24.46;45.73;100456.88;5015952;28;20583;-47
2022/06/03 11:25:17;;;;;;;9.48;5.22;;;;;;;24.58;46.06;100450.03;5013091;28;20069;-55
2022/06/03 11:28:04;;;;;;;8.93;5.28;;;;;;;24.57;45.56;100452.75;5009135;28;20046;-53
2022/06/03 11:30:47;;;;;;;9.30;5.53;;;;;;;24.56;45.30;100441.31;5018003;28;20056;-56
2022/06/03 11:33:28;;;;;;;8.45;5.18;;;;;;;24.55;46.32;100444.91;5017939;28;20054;-49
2022/06/03 11:46:51;;;;;;;10.93;6.32;;;;;;;24.22;45.26;100453.75;5100245;27;20381;-52
2022/06/03 11:49:22;;;;;;;8.88;6.22;;;;;;;24.10;45.49;100448.16;5068067;28;20052;-50
2022/06/03 11:51:49;;;;;;;8.02;5.50;;;;;;;24.00;45.70;100455.72;5055668;28;20086;-53
2022/06/03 11:54:21;;;;;;;7.93;6.57;;;;;;;23.95;45.92;100451.63;5060986;28;20057;-51
2022/06/03 11:56:49;;;;;;;9.90;7.10;;;;;;;23.91;45.72;100458.00;5048089;28;20052;-48
2022/06/03 12:04:44;;;;;;;6.55;4.60;;;;;;;23.99;45.78;100466.38;5019823;27;20753;-52
2022/06/03 12:10:15;;;;;;;10.63;5.13;;;;;;;23.96;45.30;100456.81;5013751;28;20414;-49
2022/06/03 12:15:56;;;;;;;8.88;5.15;;;;;;;24.07;45.84;100461.53;5005235;28;20038;-54
2022/06/03 12:32:14;;;;;;;10.52;6.78;;;;;;;24.16;44.97;100454.94;5039857;28;21105;-50
2022/06/03 12:34:41;;;;;;;7.85;6.15;;;;;;;24.18;44.69;100452.22;5001382;28;20096;-52
2022/06/03 12:37:27;;;;;;;11.15;7.20;;;;;;;24.17;45.10;100455.78;5001115;28;20042;-52
2022/06/03 12:42:40;;;;;;;9.38;5.10;;;;;;;24.15;45.21;100457.66;5070480;27;20393;-50
2022/06/03 12:55:38;;;;;;;6.68;4.85;;;;;;;24.22;46.17;100453.75;5076919;27;20398;-47
2022/06/03 13:00:52;;;;;;;8.23;5.25;;;;;;;24.26;44.98;100450.00;5032555;27;20429;-45
2022/06/03 13:05:57;;;;;;;7.97;4.97;;;;;;;23.90;45.17;100449.19;5031493;28;20418;-49
2022/06/03 13:19:18;;;;;;;7.40;5.32;;;;;;;23.85;45.88;100448.59;5027851;27;20437;-46
2022/06/03 18:57:58;;;;;;;4.63;3.33;;;;;;;18.16;54.34;100576.47;5036408;27;20755;-48
2022/06/03 19:00:34;;;;;;;7.72;4.82;;;;;;;18.18;53.48;100578.19;5000052;28;20050;-50
2022/06/03 19:06:29;;;;;;;8.32;4.13;;;;;;;18.35;54.19;100582.13;5049243;27;20406;-46
2022/06/03 19:09:36;;;;;;;5.75;3.13;;;;;;;18.07;54.42;100593.28;5023868;28;20046;-44
2022/06/03 19:54:02;;;;;;;6.32;4.05;;;;;;;17.33;56.47;100625.56;5071082;27;20930;-41
2022/06/03 19:56:36;;;;;;;6.38;3.13;;;;;;;17.19;56.18;100626.69;5027112;28;20053;-43
2022/06/03 20:15:04;;;;;;;7.75;6.13;;;;;;;16.65;58.05;100657.38;5055838;27;20407;-44
2022/06/03 20:17:34;;;;;;;7.40;4.38;;;;;;;16.57;57.58;100656.66;5035926;28;20053;-42
2022/06/03 20:20:06;;;;;;;8.13;4.20;;;;;;;16.56;57.90;100668.00;5031118;28;20090;-43
2022/06/03 20:33:32;;;;;;;8.77;3.22;;;;;;;16.28;57.73;100668.50;5088086;27;20404;-46
2022/06/03 20:54:54;;;;;;;5.82;3.75;;;;;;;16.51;58.09;100727.38;5025397;28;20429;-43
2022/06/03 20:57:39;;;;;;;7.35;4.30;;;;;;;16.07;58.95;100735.88;5014526;28;20057;-41
2022/06/03 21:00:10;;;;;;;5.22;4.45;;;;;;;16.03;58.12;100731.56;5003878;28;20050;-43
2022/06/03 21:02:37;;;;;;;5.28;3.85;;;;;;;15.94;58.90;100728.19;5001167;28;20061;-44
2022/06/03 21:13:01;;;;;;;6.38;2.53;;;;;;;15.64;58.81;100734.69;5041521;28;20408;-39
2022/06/03 21:15:28;;;;;;;5.65;2.45;;;;;;;15.50;58.72;100732.25;5025683;28;20053;-43
2022/06/03 21:17:54;;;;;;;6.25;3.38;;;;;;;15.38;59.23;100739.34;5029366;28;20049;-47
2022/06/03 21:20:26;;;;;;;7.85;3.55;;;;;;;15.28;59.60;100738.59;5026017;28;20056;-43
2022/06/03 21:23:18;;;;;;;9.30;3.67;;;;;;;15.15;59.65;100731.78;5015657;28;20081;-43
2022/06/03 21:25:44;;;;;;;3.80;2.28;;;;;;;15.06;60.72;100744.91;5035500;28;20064;-41
2022/06/03 21:28:11;;;;;;;4.13;2.75;;;;;;;15.01;60.35;100751.06;5018791;28;20061;-43
2022/06/03 21:30:48;;;;;;;6.57;2.25;;;;;;;14.93;59.85;100759.81;5014424;28;20195;-42
2022/06/03 21:44:37;;;;;;;6.05;3.90;;;;;;;14.61;60.55;100773.09;5104618;27;20398;-41
2022/06/03 21:47:17;;;;;;;4.22;3.25;;;;;;;14.56;60.90;100774.00;5105900;28;20048;-43
2022/06/03 21:57:58;;;;;;;7.25;2.58;;;;;;;14.30;62.25;100793.28;5026654;27;20407;-43
2022/06/03 22:00:47;;;;;;;6.43;2.75;;;;;;;14.16;62.27;100790.78;5020387;28;20057;-44
2022/06/03 22:03:17;;;;;;;5.57;2.08;;;;;;;14.19;61.64;100795.97;5030407;28;20052;-42
2022/06/03 22:05:44;;;;;;;;;;;;;;;13.94;62.09;100791.75;5034449;28;20104;-42
2022/06/03 22:08:12;;;;;;;5.22;2.30;;;;;;;14.03;61.81;100789.97;5014724;28;19935;-45
2022/06/03 22:10:41;;;;;;;4.95;2.42;;;;;;;14.00;62.55;100788.25;5021881;28;20088;-45
2022/06/03 22:13:12;;;;;;;4.85;2.83;;;;;;;13.95;62.02;100803.03;5015250;28;20042;-43
2022/06/03 22:15:39;;;;;;;7.00;2.17;;;;;;;13.91;62.47;100790.91;5019755;28;20081;-43
2022/06/03 22:18:11;;;;;;;5.85;2.33;;;;;;;13.84;63.10;100793.53;5046462;28;20049;-49
2022/06/03 22:20:40;;;;;;;6.50;2.33;;;;;;;13.84;62.16;100808.28;5012822;28;20068;-52
2022/06/03 22:23:08;;;;;;;5.70;2.63;;;;;;;13.79;62.85;100799.63;5020051;28;20050;-45
2022/06/03 22:25:49;;;;;;;4.55;2.65;;;;;;;13.72;63.13;100801.41;5017332;28;20060;-43
2022/06/03 22:33:45;;;;;;;6.43;3.88;;;;;;;13.57;63.79;100791.88;5093859;27;20402;-44
2022/06/03 22:36:24;;;;;;;5.35;3.72;;;;;;;13.47;64.12;100791.00;5062665;28;20143;-46
2022/06/03 22:46:45;;;;;;;8.73;4.85;;;;;;;13.31;65.91;100806.66;5055975;28;20395;-46
2022/06/03 22:49:16;;;;;;;9.00;6.28;;;;;;;13.29;64.93;100803.22;5015334;28;20053;-44
2022/06/03 22:51:45;;;;;;;6.28;5.05;;;;;;;13.24;66.10;100800.63;5015148;28;20061;-45
2022/06/03 22:54:13;;;;;;;10.07;5.78;;;;;;;13.22;65.83;100796.28;5014760;28;20073;-46
2022/06/03 22:56:40;;;;;;;9.13;5.55;;;;;;;13.19;65.64;100796.28;5018234;28;20111;-46
2022/06/03 22:59:07;;;;;;;12.00;6.38;;;;;;;13.10;65.61;100792.84;5010252;28;20099;-43
2022/06/03 23:01:37;;;;;;;8.45;3.92;;;;;;;13.11;66.47;100784.16;5015132;28;20485;-46
2022/06/03 23:04:05;;;;;;;11.93;5.82;;;;;;;13.06;67.23;100793.72;5018631;28;20060;-47
2022/06/03 23:06:32;;;;;;;8.50;5.38;;;;;;;13.03;66.74;100796.31;5015517;28;20053;-42
2022/06/03 23:09:16;;;;;;;9.50;5.50;;;;;;;13.02;67.80;100786.78;5019914;28;20536;-44
2022/06/03 23:11:47;;;;;;;9.00;5.80;;;;;;;13.02;66.63;100799.78;5022800;28;20062;-44
2022/06/03 23:14:14;;;;;;;10.35;6.20;;;;;;;13.02;66.57;100789.38;5022591;28;20060;-43
2022/06/03 23:16:41;;;;;;;12.05;5.55;;;;;;;12.98;68.21;100791.09;5017966;28;20096;-46
2022/06/03 23:19:08;;;;;;;10.13;6.95;;;;;;;12.97;67.52;100791.13;5019681;28;20049;-48
2022/06/03 23:21:34;;;;;;;10.85;7.07;;;;;;;12.98;68.20;100787.66;5015309;28;20050;-45
2022/06/03 23:24:01;;;;;;;9.52;4.35;;;;;;;12.99;68.11;100794.56;5014377;28;20788;-44
2022/06/03 23:26:29;;;;;;;9.52;5.63;;;;;;;13.02;67.46;100804.97;5013691;28;20096;-47
2022/06/03 23:28:56;;;;;;;11.23;6.70;;;;;;;13.02;67.69;100804.97;5017194;28;20042;-44
2022/06/03 23:31:25;;;;;;;11.32;6.45;;;;;;;13.07;67.57;100803.22;5016737;28;20054;-46
2022/06/03 23:33:54;;;;;;;15.32;6.15;;;;;;;13.12;67.79;100816.25;5014449;28;20038;-44
2022/06/03 23:36:23;;;;;;;12.02;6.65;;;;;;;13.15;67.62;100815.38;5013048;28;20060;-42
2022/06/03 23:38:50;;;;;;;15.07;6.45;;;;;;;13.17;67.48;100808.44;5003522;28;20537;-41
2022/06/03 23:46:53;;;;;;;14.35;7.05;;;;;;;13.09;69.08;100801.50;5020582;28;20052;-42
2022/06/03 23:49:23;;;;;;;13.93;5.68;;;;;;;13.06;68.55;100806.72;5012848;28;20379;-44
2022/06/03 23:51:52;;;;;;;12.55;6.15;;;;;;;13.08;67.97;100804.97;5015340;28;20038;-46
2022/06/03 23:54:26;;;;;;;11.85;6.88;;;;;;;13.08;68.38;100811.91;5019816;28;20041;-50
2022/06/03 23:56:53;;;;;;;12.40;6.97;;;;;;;13.08;68.77;100815.38;5011882;28;20049;-46
2022/06/03 23:59:20;;;;;;;11.02;6.45;;;;;;;13.09;68.52;100817.13;5005871;28;20490;-45
